ADDS METAR Data INFO
IDs: Format: Raw Decoded Include TAF

Data at: 0022 UTC 17 Dec 2017

KOPF 162353Z 05004KT 10SM CLR 22/15 A3020 RMK AO2 SLP226 T02170150 10267 20211 53014
KOPF 162253Z 06005KT 10SM CLR 22/16 A3018 RMK AO2 SLP221 T02220156
KOPF 162153Z 06009KT 10SM SCT039 24/16 A3017 RMK AO2 SLP217 T02440156
KOPF 162053Z 07008KT 10SM FEW039 25/16 A3016 RMK AO2 SLP212 T02500156 56006
KOPF 161953Z 06009KT 10SM CLR 26/16 A3016 RMK AO2 SLP214 T02560156
KOPF 161853Z 04009KT 10SM BKN040 26/16 A3017 RMK AO2 SLP215 T02560156
KOPF 161753Z 07006KT 10SM CLR 26/16 A3017 RMK AO2 SLP219 T02610161 10267 20128 58020
KOPF 161653Z 08006KT 10SM CLR 26/16 A3021 RMK AO2 SLP229 T02560156
KOPF 161553Z 04006KT 10SM CLR 24/16 A3023 RMK AO2 SLP238 T02440156
KOPF 161453Z 04005KT 10SM CLR 23/16 A3023 RMK AO2 SLP239 T02280161 51018
KOPF 161353Z 01005KT 10SM CLR 19/16 A3022 RMK AO2 SLP235 T01940161
KOPF 161253Z 00000KT 10SM CLR 17/15 A3020 RMK AO2 SLP228 T01670150
KOPF 161153Z 01003KT 10SM CLR 14/13 A3018 RMK AO2 SLP221 T01390133 10172 20133 53007
KOPF 161053Z AUTO 00000KT 10SM CLR 14/12 A3017 RMK AO2 SLP216 T01390122
KOPF 160953Z AUTO 36005KT 10SM CLR 15/14 A3016 RMK AO2 SLP212 T01500139
KOPF 160853Z AUTO 00000KT 10SM CLR 14/13 A3016 RMK AO2 SLP213 T01390128 56008
KOPF 160753Z AUTO 00000KT 10SM CLR 14/13 A3017 RMK AO2 SLP217 T01440133
KOPF 160653Z AUTO 35003KT 10SM CLR 16/13 A3017 RMK AO2 SLP217 T01610133
KOPF 160553Z AUTO 34003KT 10SM CLR 16/14 A3018 RMK AO2 SLP221 T01560144 10211 20150 51004
KOPF 160453Z AUTO 00000KT 7SM CLR 16/15 A3018 RMK AO2 SLP219 T01610150 402670111
KOPF 160353Z 00000KT 10SM CLR 17/14 A3018 RMK AO2 SLP219 T01670144
KOPF 160253Z 00000KT 10SM CLR 17/14 A3017 RMK AO2 SLP217 T01720144 51015
KOPF 160153Z 00000KT 10SM CLR 18/14 A3015 RMK AO2 SLP211 T01830139
KOPF 160053Z 00000KT 10SM CLR 19/13 A3014 RMK AO2 SLP208 T01890133
KOPF 152353Z 14003KT 10SM CLR 21/13 A3013 RMK AO2 SLP202 T02110133 10267 20194 53019
KOPF 152253Z 30004KT 10SM CLR 22/13 A3010 RMK AO2 SLP195 T02170133
KOPF 152153Z 29006KT 10SM CLR 24/12 A3008 RMK AO2 SLP188 T02390117
KOPF 152053Z 17006KT 10SM CLR 25/14 A3007 RMK AO2 SLP183 T02500144 55005
KOPF 151953Z VRB03KT 10SM CLR 26/12 A3006 RMK AO2 SLP181 T02610117
KOPF 151853Z 26005KT 10SM CLR 26/12 A3007 RMK AO2 SLP182 T02560117
KOPF 151753Z VRB04KT 10SM CLR 25/12 A3008 RMK AO2 SLP188 T02500117 10250 20111 58018
KOPF 151653Z 23007KT 10SM CLR 24/12 A3011 RMK AO2 SLP197 T02440122
KOPF 151553Z 21004KT 10SM CLR 23/13 A3013 RMK AO2 SLP204 T02280128
KOPF 151453Z 21004KT 10SM CLR 22/14 A3014 RMK AO2 SLP205 T02170144 53012
KOPF 151353Z 00000KT 10SM CLR 18/14 A3013 RMK AO2 SLP202 T01780144
KOPF 151253Z 00000KT 10SM CLR 13/12 A3011 RMK AO2 SLP197 T01330122